sensor_id;sensor_type;location;lat;lon;timestamp;P1;durP1;ratioP1;P2;durP2;ratioP2
29824;SDS011;16713;52.916;12.834;2024-02-15T00:01:52;14.38;;;8.00;;
29824;SDS011;16713;52.916;12.834;2024-02-15T00:04:18;11.55;;;6.80;;
29824;SDS011;16713;52.916;12.834;2024-02-15T00:06:46;8.95;;;7.20;;
29824;SDS011;16713;52.916;12.834;2024-02-15T00:09:12;10.68;;;6.93;;
29824;SDS011;16713;52.916;12.834;2024-02-15T00:11:39;10.27;;;7.07;;
29824;SDS011;16713;52.916;12.834;2024-02-15T00:14:05;10.63;;;8.27;;
29824;SDS011;16713;52.916;12.834;2024-02-15T00:16:34;9.95;;;6.78;;
29824;SDS011;16713;52.916;12.834;2024-02-15T00:19:01;8.27;;;7.15;;
29824;SDS011;16713;52.916;12.834;2024-02-15T00:21:28;10.52;;;7.78;;
29824;SDS011;16713;52.916;12.834;2024-02-15T00:23:54;7.93;;;7.13;;
29824;SDS011;16713;52.916;12.834;2024-02-15T00:26:23;10.10;;;7.68;;
29824;SDS011;16713;52.916;12.834;2024-02-15T00:28:49;8.20;;;7.25;;
29824;SDS011;16713;52.916;12.834;2024-02-15T00:31:16;8.40;;;6.57;;
29824;SDS011;16713;52.916;12.834;2024-02-15T00:33:42;10.57;;;7.22;;
29824;SDS011;16713;52.916;12.834;2024-02-15T00:36:10;10.48;;;7.28;;
29824;SDS011;16713;52.916;12.834;2024-02-15T00:38:36;9.57;;;6.93;;
29824;SDS011;16713;52.916;12.834;2024-02-15T00:41:04;11.20;;;6.97;;
29824;SDS011;16713;52.916;12.834;2024-02-15T00:43:34;9.95;;;6.72;;
29824;SDS011;16713;52.916;12.834;2024-02-15T00:46:02;9.57;;;6.82;;
29824;SDS011;16713;52.916;12.834;2024-02-15T00:48:28;9.55;;;7.38;;
29824;SDS011;16713;52.916;12.834;2024-02-15T00:50:56;7.78;;;6.78;;
29824;SDS011;16713;52.916;12.834;2024-02-15T00:53:23;9.45;;;6.45;;
29824;SDS011;16713;52.916;12.834;2024-02-15T00:55:49;8.52;;;6.97;;
29824;SDS011;16713;52.916;12.834;2024-02-15T00:58:16;7.80;;;6.82;;
29824;SDS011;16713;52.916;12.834;2024-02-15T01:00:42;11.45;;;7.05;;
29824;SDS011;16713;52.916;12.834;2024-02-15T01:03:09;10.80;;;7.63;;
29824;SDS011;16713;52.916;12.834;2024-02-15T01:05:35;9.43;;;6.70;;
29824;SDS011;16713;52.916;12.834;2024-02-15T01:08:02;9.35;;;6.82;;
29824;SDS011;16713;52.916;12.834;2024-02-15T01:10:28;11.48;;;7.43;;
29824;SDS011;16713;52.916;12.834;2024-02-15T01:12:54;11.20;;;7.18;;
29824;SDS011;16713;52.916;12.834;2024-02-15T01:15:21;19.52;;;7.28;;
29824;SDS011;16713;52.916;12.834;2024-02-15T01:17:47;9.77;;;6.40;;
29824;SDS011;16713;52.916;12.834;2024-02-15T01:20:14;13.20;;;6.78;;
29824;SDS011;16713;52.916;12.834;2024-02-15T01:22:41;8.50;;;7.43;;
29824;SDS011;16713;52.916;12.834;2024-02-15T01:25:08;9.63;;;7.63;;
29824;SDS011;16713;52.916;12.834;2024-02-15T01:27:35;11.10;;;8.10;;
29824;SDS011;16713;52.916;12.834;2024-02-15T01:30:02;11.52;;;8.48;;
29824;SDS011;16713;52.916;12.834;2024-02-15T01:32:30;11.38;;;7.72;;
29824;SDS011;16713;52.916;12.834;2024-02-15T01:34:57;13.35;;;7.95;;
29824;SDS011;16713;52.916;12.834;2024-02-15T01:37:23;11.27;;;7.75;;
29824;SDS011;16713;52.916;12.834;2024-02-15T01:39:50;9.30;;;7.88;;
29824;SDS011;16713;52.916;12.834;2024-02-15T01:42:18;10.48;;;7.80;;
29824;SDS011;16713;52.916;12.834;2024-02-15T01:44:45;11.65;;;8.13;;
29824;SDS011;16713;52.916;12.834;2024-02-15T01:47:13;10.93;;;7.75;;
29824;SDS011;16713;52.916;12.834;2024-02-15T01:49:40;14.20;;;8.18;;
29824;SDS011;16713;52.916;12.834;2024-02-15T01:52:07;10.50;;;8.32;;
29824;SDS011;16713;52.916;12.834;2024-02-15T01:54:37;11.40;;;8.88;;
29824;SDS011;16713;52.916;12.834;2024-02-15T01:57:04;10.25;;;8.10;;
29824;SDS011;16713;52.916;12.834;2024-02-15T01:59:32;9.60;;;7.82;;
29824;SDS011;16713;52.916;12.834;2024-02-15T02:01:58;9.88;;;7.65;;
29824;SDS011;16713;52.916;12.834;2024-02-15T02:04:25;10.77;;;8.25;;
29824;SDS011;16713;52.916;12.834;2024-02-15T02:06:51;10.23;;;8.65;;
29824;SDS011;16713;52.916;12.834;2024-02-15T02:09:22;9.85;;;8.02;;
29824;SDS011;16713;52.916;12.834;2024-02-15T02:11:49;10.00;;;7.88;;
29824;SDS011;16713;52.916;12.834;2024-02-15T02:14:17;10.35;;;8.05;;
29824;SDS011;16713;52.916;12.834;2024-02-15T02:16:46;15.98;;;8.27;;
29824;SDS011;16713;52.916;12.834;2024-02-15T02:19:13;12.48;;;8.45;;
29824;SDS011;16713;52.916;12.834;2024-02-15T02:21:39;11.13;;;9.10;;
29824;SDS011;16713;52.916;12.834;2024-02-15T02:24:10;15.80;;;8.70;;
29824;SDS011;16713;52.916;12.834;2024-02-15T02:26:40;13.73;;;9.57;;
29824;SDS011;16713;52.916;12.834;2024-02-15T02:29:07;13.32;;;8.85;;
29824;SDS011;16713;52.916;12.834;2024-02-15T02:31:34;12.65;;;9.27;;
29824;SDS011;16713;52.916;12.834;2024-02-15T02:34:00;10.63;;;9.20;;
29824;SDS011;16713;52.916;12.834;2024-02-15T02:36:27;13.38;;;9.43;;
29824;SDS011;16713;52.916;12.834;2024-02-15T02:38:55;12.13;;;8.95;;
29824;SDS011;16713;52.916;12.834;2024-02-15T02:41:27;15.57;;;9.65;;
29824;SDS011;16713;52.916;12.834;2024-02-15T02:43:57;13.05;;;10.18;;
29824;SDS011;16713;52.916;12.834;2024-02-15T02:46:24;11.90;;;9.43;;
29824;SDS011;16713;52.916;12.834;2024-02-15T02:48:50;12.57;;;10.05;;
29824;SDS011;16713;52.916;12.834;2024-02-15T02:51:18;16.98;;;9.95;;
29824;SDS011;16713;52.916;12.834;2024-02-15T02:53:44;14.52;;;11.35;;
29824;SDS011;16713;52.916;12.834;2024-02-15T02:56:11;11.32;;;9.95;;
29824;SDS011;16713;52.916;12.834;2024-02-15T02:58:39;13.50;;;10.18;;
29824;SDS011;16713;52.916;12.834;2024-02-15T03:01:08;12.75;;;10.60;;
29824;SDS011;16713;52.916;12.834;2024-02-15T03:03:35;13.23;;;9.80;;
29824;SDS011;16713;52.916;12.834;2024-02-15T03:06:02;13.95;;;10.02;;
29824;SDS011;16713;52.916;12.834;2024-02-15T03:08:28;12.25;;;9.73;;
29824;SDS011;16713;52.916;12.834;2024-02-15T03:10:55;13.48;;;10.38;;
29824;SDS011;16713;52.916;12.834;2024-02-15T03:13:21;14.20;;;10.52;;
29824;SDS011;16713;52.916;12.834;2024-02-15T03:15:49;14.63;;;11.00;;
29824;SDS011;16713;52.916;12.834;2024-02-15T03:18:17;18.55;;;10.55;;
29824;SDS011;16713;52.916;12.834;2024-02-15T03:20:44;12.93;;;10.20;;
29824;SDS011;16713;52.916;12.834;2024-02-15T03:23:10;12.60;;;10.52;;
29824;SDS011;16713;52.916;12.834;2024-02-15T03:25:37;15.13;;;10.43;;
29824;SDS011;16713;52.916;12.834;2024-02-15T03:28:04;14.85;;;9.68;;
29824;SDS011;16713;52.916;12.834;2024-02-15T03:30:31;13.13;;;11.00;;
29824;SDS011;16713;52.916;12.834;2024-02-15T03:33:00;13.10;;;10.23;;
29824;SDS011;16713;52.916;12.834;2024-02-15T03:35:28;13.25;;;10.55;;
29824;SDS011;16713;52.916;12.834;2024-02-15T03:37:58;13.82;;;10.43;;
29824;SDS011;16713;52.916;12.834;2024-02-15T03:40:25;13.35;;;10.63;;
29824;SDS011;16713;52.916;12.834;2024-02-15T03:42:56;15.10;;;10.98;;
29824;SDS011;16713;52.916;12.834;2024-02-15T03:45:22;16.30;;;10.95;;
29824;SDS011;16713;52.916;12.834;2024-02-15T03:47:52;16.58;;;11.18;;
29824;SDS011;16713;52.916;12.834;2024-02-15T03:50:19;13.85;;;10.82;;
29824;SDS011;16713;52.916;12.834;2024-02-15T03:52:48;16.50;;;10.80;;
29824;SDS011;16713;52.916;12.834;2024-02-15T03:55:15;12.77;;;10.80;;
29824;SDS011;16713;52.916;12.834;2024-02-15T03:57:41;13.00;;;10.95;;
29824;SDS011;16713;52.916;12.834;2024-02-15T04:00:10;15.68;;;11.57;;
29824;SDS011;16713;52.916;12.834;2024-02-15T04:02:38;15.32;;;11.32;;
29824;SDS011;16713;52.916;12.834;2024-02-15T04:05:07;14.77;;;10.90;;
29824;SDS011;16713;52.916;12.834;2024-02-15T04:07:35;15.25;;;11.68;;
29824;SDS011;16713;52.916;12.834;2024-02-15T04:10:03;21.38;;;11.50;;
29824;SDS011;16713;52.916;12.834;2024-02-15T04:12:34;17.48;;;11.63;;
29824;SDS011;16713;52.916;12.834;2024-02-15T04:15:00;18.17;;;12.40;;
29824;SDS011;16713;52.916;12.834;2024-02-15T04:17:31;18.23;;;12.15;;
29824;SDS011;16713;52.916;12.834;2024-02-15T04:20:03;17.20;;;12.38;;
29824;SDS011;16713;52.916;12.834;2024-02-15T04:22:31;15.52;;;11.95;;
29824;SDS011;16713;52.916;12.834;2024-02-15T04:25:06;16.92;;;11.23;;
29824;SDS011;16713;52.916;12.834;2024-02-15T04:27:35;16.13;;;11.82;;
29824;SDS011;16713;52.916;12.834;2024-02-15T04:30:02;16.08;;;12.23;;
29824;SDS011;16713;52.916;12.834;2024-02-15T04:32:30;16.85;;;12.63;;
29824;SDS011;16713;52.916;12.834;2024-02-15T04:35:00;16.63;;;10.88;;
29824;SDS011;16713;52.916;12.834;2024-02-15T04:37:28;17.08;;;11.63;;
29824;SDS011;16713;52.916;12.834;2024-02-15T04:39:59;14.95;;;11.57;;
29824;SDS011;16713;52.916;12.834;2024-02-15T04:42:33;17.15;;;12.43;;
29824;SDS011;16713;52.916;12.834;2024-02-15T04:45:00;16.25;;;11.98;;
29824;SDS011;16713;52.916;12.834;2024-02-15T04:47:27;19.45;;;13.10;;
29824;SDS011;16713;52.916;12.834;2024-02-15T04:49:56;18.27;;;12.48;;
29824;SDS011;16713;52.916;12.834;2024-02-15T04:52:22;17.00;;;11.95;;
29824;SDS011;16713;52.916;12.834;2024-02-15T04:54:50;17.80;;;12.45;;
29824;SDS011;16713;52.916;12.834;2024-02-15T04:57:16;15.32;;;11.38;;
29824;SDS011;16713;52.916;12.834;2024-02-15T04:59:43;20.10;;;12.68;;
29824;SDS011;16713;52.916;12.834;2024-02-15T05:02:13;17.98;;;12.00;;
29824;SDS011;16713;52.916;12.834;2024-02-15T05:04:39;15.73;;;11.27;;
29824;SDS011;16713;52.916;12.834;2024-02-15T05:07:09;17.52;;;11.77;;
29824;SDS011;16713;52.916;12.834;2024-02-15T05:09:36;16.33;;;11.15;;
29824;SDS011;16713;52.916;12.834;2024-02-15T05:12:03;19.92;;;12.10;;
29824;SDS011;16713;52.916;12.834;2024-02-15T05:14:30;17.17;;;11.27;;
29824;SDS011;16713;52.916;12.834;2024-02-15T05:16:57;17.85;;;11.70;;
29824;SDS011;16713;52.916;12.834;2024-02-15T05:19:23;18.25;;;11.88;;
29824;SDS011;16713;52.916;12.834;2024-02-15T05:21:50;15.00;;;11.32;;
29824;SDS011;16713;52.916;12.834;2024-02-15T05:24:17;14.98;;;11.10;;
29824;SDS011;16713;52.916;12.834;2024-02-15T05:26:44;16.05;;;11.77;;
29824;SDS011;16713;52.916;12.834;2024-02-15T05:29:15;18.33;;;12.05;;
29824;SDS011;16713;52.916;12.834;2024-02-15T05:31:42;20.02;;;11.73;;
29824;SDS011;16713;52.916;12.834;2024-02-15T05:34:10;16.33;;;11.38;;
29824;SDS011;16713;52.916;12.834;2024-02-15T05:36:38;18.23;;;11.95;;
29824;SDS011;16713;52.916;12.834;2024-02-15T05:39:05;17.17;;;12.18;;
29824;SDS011;16713;52.916;12.834;2024-02-15T05:41:31;18.02;;;11.50;;
29824;SDS011;16713;52.916;12.834;2024-02-15T05:44:01;18.33;;;11.82;;
29824;SDS011;16713;52.916;12.834;2024-02-15T05:46:30;18.63;;;11.50;;
29824;SDS011;16713;52.916;12.834;2024-02-15T05:48:57;17.52;;;11.27;;
29824;SDS011;16713;52.916;12.834;2024-02-15T05:51:23;21.58;;;13.75;;
29824;SDS011;16713;52.916;12.834;2024-02-15T05:53:50;17.25;;;10.73;;
29824;SDS011;16713;52.916;12.834;2024-02-15T05:56:17;17.85;;;10.48;;
29824;SDS011;16713;52.916;12.834;2024-02-15T05:58:43;17.35;;;11.20;;
29824;SDS011;16713;52.916;12.834;2024-02-15T06:01:10;18.98;;;11.13;;
29824;SDS011;16713;52.916;12.834;2024-02-15T06:03:39;16.45;;;11.27;;
29824;SDS011;16713;52.916;12.834;2024-02-15T06:06:07;19.90;;;10.95;;
29824;SDS011;16713;52.916;12.834;2024-02-15T06:08:34;19.70;;;11.45;;
29824;SDS011;16713;52.916;12.834;2024-02-15T06:11:01;17.55;;;12.13;;
29824;SDS011;16713;52.916;12.834;2024-02-15T06:13:28;18.23;;;12.18;;
29824;SDS011;16713;52.916;12.834;2024-02-15T06:15:55;17.00;;;10.55;;
29824;SDS011;16713;52.916;12.834;2024-02-15T06:18:24;18.48;;;11.27;;
29824;SDS011;16713;52.916;12.834;2024-02-15T06:20:54;17.52;;;11.25;;
29824;SDS011;16713;52.916;12.834;2024-02-15T06:23:23;15.65;;;10.45;;
29824;SDS011;16713;52.916;12.834;2024-02-15T06:25:51;15.68;;;11.27;;
29824;SDS011;16713;52.916;12.834;2024-02-15T06:28:22;16.50;;;10.90;;
29824;SDS011;16713;52.916;12.834;2024-02-15T06:31:23;17.75;;;11.20;;
29824;SDS011;16713;52.916;12.834;2024-02-15T06:34:08;13.57;;;9.60;;
29824;SDS011;16713;52.916;12.834;2024-02-15T06:36:54;19.52;;;10.13;;
29824;SDS011;16713;52.916;12.834;2024-02-15T06:39:40;15.40;;;10.30;;
29824;SDS011;16713;52.916;12.834;2024-02-15T06:42:09;17.27;;;10.45;;
29824;SDS011;16713;52.916;12.834;2024-02-15T06:44:45;17.15;;;10.68;;
29824;SDS011;16713;52.916;12.834;2024-02-15T06:47:13;15.07;;;9.30;;
29824;SDS011;16713;52.916;12.834;2024-02-15T06:49:41;17.20;;;10.73;;
29824;SDS011;16713;52.916;12.834;2024-02-15T06:52:10;17.27;;;10.05;;
29824;SDS011;16713;52.916;12.834;2024-02-15T06:54:41;15.27;;;10.27;;
29824;SDS011;16713;52.916;12.834;2024-02-15T06:57:08;15.43;;;10.02;;
29824;SDS011;16713;52.916;12.834;2024-02-15T06:59:34;15.77;;;10.48;;
29824;SDS011;16713;52.916;12.834;2024-02-15T07:02:01;16.60;;;10.40;;
29824;SDS011;16713;52.916;12.834;2024-02-15T07:04:31;16.17;;;11.23;;
29824;SDS011;16713;52.916;12.834;2024-02-15T07:06:58;14.40;;;9.68;;
29824;SDS011;16713;52.916;12.834;2024-02-15T07:09:26;15.60;;;10.02;;
29824;SDS011;16713;52.916;12.834;2024-02-15T07:11:53;14.57;;;9.98;;
29824;SDS011;16713;52.916;12.834;2024-02-15T07:14:20;16.15;;;9.70;;
29824;SDS011;16713;52.916;12.834;2024-02-15T07:16:47;15.43;;;9.45;;
29824;SDS011;16713;52.916;12.834;2024-02-15T07:19:15;17.65;;;10.43;;
29824;SDS011;16713;52.916;12.834;2024-02-15T07:21:43;12.25;;;8.50;;
29824;SDS011;16713;52.916;12.834;2024-02-15T07:24:10;14.02;;;9.68;;
29824;SDS011;16713;52.916;12.834;2024-02-15T07:26:36;15.63;;;10.27;;
29824;SDS011;16713;52.916;12.834;2024-02-15T07:29:03;14.75;;;9.05;;
29824;SDS011;16713;52.916;12.834;2024-02-15T07:31:34;18.73;;;9.17;;
29824;SDS011;16713;52.916;12.834;2024-02-15T07:34:01;16.08;;;10.00;;
29824;SDS011;16713;52.916;12.834;2024-02-15T07:36:30;15.32;;;9.85;;
29824;SDS011;16713;52.916;12.834;2024-02-15T07:38:56;15.77;;;9.48;;
29824;SDS011;16713;52.916;12.834;2024-02-15T07:41:28;15.90;;;8.65;;
29824;SDS011;16713;52.916;12.834;2024-02-15T07:43:55;14.82;;;9.57;;
29824;SDS011;16713;52.916;12.834;2024-02-15T07:46:22;14.20;;;8.98;;
29824;SDS011;16713;52.916;12.834;2024-02-15T07:48:50;13.50;;;9.07;;
29824;SDS011;16713;52.916;12.834;2024-02-15T07:51:17;15.82;;;9.93;;
29824;SDS011;16713;52.916;12.834;2024-02-15T07:53:46;17.88;;;9.70;;
29824;SDS011;16713;52.916;12.834;2024-02-15T07:56:13;16.17;;;9.90;;
29824;SDS011;16713;52.916;12.834;2024-02-15T07:58:44;13.73;;;9.38;;
29824;SDS011;16713;52.916;12.834;2024-02-15T08:01:18;12.48;;;8.57;;
29824;SDS011;16713;52.916;12.834;2024-02-15T08:03:50;14.70;;;9.70;;
29824;SDS011;16713;52.916;12.834;2024-02-15T08:06:19;12.30;;;8.77;;
29824;SDS011;16713;52.916;12.834;2024-02-15T08:08:46;12.75;;;9.23;;
29824;SDS011;16713;52.916;12.834;2024-02-15T08:11:13;13.98;;;9.23;;
29824;SDS011;16713;52.916;12.834;2024-02-15T08:13:44;14.07;;;9.48;;
29824;SDS011;16713;52.916;12.834;2024-02-15T08:16:14;14.15;;;9.15;;
29824;SDS011;16713;52.916;12.834;2024-02-15T08:18:43;14.80;;;9.77;;
29824;SDS011;16713;52.916;12.834;2024-02-15T08:21:10;12.43;;;8.82;;
29824;SDS011;16713;52.916;12.834;2024-02-15T08:23:37;13.88;;;8.60;;
29824;SDS011;16713;52.916;12.834;2024-02-15T08:26:04;14.25;;;8.85;;
29824;SDS011;16713;52.916;12.834;2024-02-15T08:28:31;14.15;;;7.85;;
29824;SDS011;16713;52.916;12.834;2024-02-15T08:30:57;13.40;;;8.80;;
29824;SDS011;16713;52.916;12.834;2024-02-15T08:33:24;13.25;;;8.38;;
29824;SDS011;16713;52.916;12.834;2024-02-15T08:35:52;16.60;;;8.50;;
29824;SDS011;16713;52.916;12.834;2024-02-15T08:38:22;15.73;;;8.93;;
29824;SDS011;16713;52.916;12.834;2024-02-15T08:40:49;10.43;;;7.85;;
29824;SDS011;16713;52.916;12.834;2024-02-15T08:43:15;13.38;;;8.20;;
29824;SDS011;16713;52.916;12.834;2024-02-15T08:45:42;12.43;;;9.05;;
29824;SDS011;16713;52.916;12.834;2024-02-15T08:48:10;11.98;;;7.82;;
29824;SDS011;16713;52.916;12.834;2024-02-15T08:50:38;12.07;;;7.78;;
29824;SDS011;16713;52.916;12.834;2024-02-15T08:53:04;14.85;;;8.88;;
29824;SDS011;16713;52.916;12.834;2024-02-15T08:55:33;14.55;;;7.65;;
29824;SDS011;16713;52.916;12.834;2024-02-15T08:58:02;12.02;;;7.15;;
29824;SDS011;16713;52.916;12.834;2024-02-15T09:00:29;11.10;;;7.50;;
29824;SDS011;16713;52.916;12.834;2024-02-15T09:02:56;14.82;;;8.02;;
29824;SDS011;16713;52.916;12.834;2024-02-15T09:05:23;12.60;;;7.53;;
29824;SDS011;16713;52.916;12.834;2024-02-15T09:07:50;12.13;;;7.38;;
29824;SDS011;16713;52.916;12.834;2024-02-15T09:10:18;18.17;;;7.45;;
29824;SDS011;16713;52.916;12.834;2024-02-15T09:12:45;12.20;;;7.97;;
29824;SDS011;16713;52.916;12.834;2024-02-15T09:15:15;11.10;;;7.72;;
29824;SDS011;16713;52.916;12.834;2024-02-15T09:17:44;13.35;;;8.00;;
29824;SDS011;16713;52.916;12.834;2024-02-15T09:20:13;11.02;;;6.88;;
29824;SDS011;16713;52.916;12.834;2024-02-15T09:22:52;10.48;;;7.07;;
29824;SDS011;16713;52.916;12.834;2024-02-15T09:25:23;11.07;;;7.78;;
29824;SDS011;16713;52.916;12.834;2024-02-15T09:27:50;11.88;;;7.78;;
29824;SDS011;16713;52.916;12.834;2024-02-15T09:30:17;11.68;;;7.53;;
29824;SDS011;16713;52.916;12.834;2024-02-15T09:32:44;14.25;;;8.23;;
29824;SDS011;16713;52.916;12.834;2024-02-15T09:35:12;11.68;;;7.45;;
29824;SDS011;16713;52.916;12.834;2024-02-15T09:37:43;11.02;;;6.80;;
29824;SDS011;16713;52.916;12.834;2024-02-15T09:42:38;11.40;;;6.80;;
29824;SDS011;16713;52.916;12.834;2024-02-15T09:45:06;11.48;;;6.15;;
29824;SDS011;16713;52.916;12.834;2024-02-15T09:47:37;11.33;;;7.43;;
29824;SDS011;16713;52.916;12.834;2024-02-15T09:52:34;13.52;;;7.70;;
29824;SDS011;16713;52.916;12.834;2024-02-15T09:55:04;10.18;;;7.47;;
29824;SDS011;16713;52.916;12.834;2024-02-15T09:57:31;9.82;;;6.70;;
29824;SDS011;16713;52.916;12.834;2024-02-15T09:59:59;9.95;;;7.30;;
29824;SDS011;16713;52.916;12.834;2024-02-15T10:02:31;10.80;;;7.05;;
29824;SDS011;16713;52.916;12.834;2024-02-15T10:04:58;10.75;;;7.30;;
29824;SDS011;16713;52.916;12.834;2024-02-15T10:07:25;9.13;;;7.10;;
29824;SDS011;16713;52.916;12.834;2024-02-15T10:09:53;10.02;;;7.03;;
29824;SDS011;16713;52.916;12.834;2024-02-15T10:12:26;10.70;;;7.40;;
29824;SDS011;16713;52.916;12.834;2024-02-15T10:15:03;12.00;;;7.32;;
29824;SDS011;16713;52.916;12.834;2024-02-15T10:17:33;11.27;;;6.72;;
29824;SDS011;16713;52.916;12.834;2024-02-15T10:20:07;8.98;;;6.80;;
29824;SDS011;16713;52.916;12.834;2024-02-15T10:22:36;10.95;;;7.07;;
29824;SDS011;16713;52.916;12.834;2024-02-15T10:25:12;9.80;;;6.85;;
29824;SDS011;16713;52.916;12.834;2024-02-15T10:27:40;10.13;;;7.60;;
29824;SDS011;16713;52.916;12.834;2024-02-15T10:30:14;9.80;;;6.80;;
29824;SDS011;16713;52.916;12.834;2024-02-15T10:32:45;12.18;;;6.78;;
29824;SDS011;16713;52.916;12.834;2024-02-15T10:35:19;9.55;;;6.88;;
29824;SDS011;16713;52.916;12.834;2024-02-15T10:37:47;12.13;;;7.47;;
29824;SDS011;16713;52.916;12.834;2024-02-15T10:40:17;9.98;;;6.90;;
29824;SDS011;16713;52.916;12.834;2024-02-15T10:42:48;14.25;;;7.88;;
29824;SDS011;16713;52.916;12.834;2024-02-15T10:45:15;10.50;;;7.00;;
29824;SDS011;16713;52.916;12.834;2024-02-15T10:47:44;11.93;;;6.57;;
29824;SDS011;16713;52.916;12.834;2024-02-15T10:50:14;10.57;;;7.00;;
29824;SDS011;16713;52.916;12.834;2024-02-15T10:52:55;10.90;;;6.65;;
29824;SDS011;16713;52.916;12.834;2024-02-15T10:55:38;11.52;;;6.38;;
29824;SDS011;16713;52.916;12.834;2024-02-15T10:58:13;7.13;;;5.85;;
29824;SDS011;16713;52.916;12.834;2024-02-15T11:00:45;7.82;;;6.00;;
29824;SDS011;16713;52.916;12.834;2024-02-15T11:03:16;6.60;;;5.22;;
29824;SDS011;16713;52.916;12.834;2024-02-15T11:05:50;8.15;;;5.38;;
29824;SDS011;16713;52.916;12.834;2024-02-15T11:08:19;7.88;;;5.50;;
29824;SDS011;16713;52.916;12.834;2024-02-15T11:10:45;9.32;;;5.80;;
29824;SDS011;16713;52.916;12.834;2024-02-15T11:13:14;8.60;;;5.47;;
29824;SDS011;16713;52.916;12.834;2024-02-15T11:15:43;6.95;;;4.60;;
29824;SDS011;16713;52.916;12.834;2024-02-15T11:21:08;7.22;;;4.88;;
29824;SDS011;16713;52.916;12.834;2024-02-15T11:23:36;6.00;;;4.50;;
29824;SDS011;16713;52.916;12.834;2024-02-15T11:26:03;8.00;;;4.15;;
29824;SDS011;16713;52.916;12.834;2024-02-15T11:28:36;5.45;;;4.38;;
29824;SDS011;16713;52.916;12.834;2024-02-15T11:31:08;6.50;;;4.72;;
29824;SDS011;16713;52.916;12.834;2024-02-15T11:33:35;7.32;;;5.63;;
29824;SDS011;16713;52.916;12.834;2024-02-15T11:36:09;6.25;;;4.63;;
29824;SDS011;16713;52.916;12.834;2024-02-15T11:38:38;6.75;;;4.85;;
29824;SDS011;16713;52.916;12.834;2024-02-15T11:41:08;8.10;;;4.95;;
29824;SDS011;16713;52.916;12.834;2024-02-15T11:46:26;6.93;;;4.60;;
29824;SDS011;16713;52.916;12.834;2024-02-15T11:48:57;7.10;;;5.33;;
29824;SDS011;16713;52.916;12.834;2024-02-15T11:51:26;10.05;;;5.90;;
29824;SDS011;16713;52.916;12.834;2024-02-15T11:54:08;8.15;;;4.93;;
29824;SDS011;16713;52.916;12.834;2024-02-15T11:59:15;7.50;;;5.18;;
29824;SDS011;16713;52.916;12.834;2024-02-15T12:01:56;7.45;;;5.22;;
29824;SDS011;16713;52.916;12.834;2024-02-15T12:04:42;10.65;;;5.57;;
29824;SDS011;16713;52.916;12.834;2024-02-15T12:07:28;7.00;;;5.25;;
29824;SDS011;16713;52.916;12.834;2024-02-15T12:10:17;9.27;;;5.57;;
29824;SDS011;16713;52.916;12.834;2024-02-15T12:13:02;7.28;;;5.57;;
29824;SDS011;16713;52.916;12.834;2024-02-15T12:15:57;7.15;;;5.65;;
29824;SDS011;16713;52.916;12.834;2024-02-15T12:18:43;8.20;;;5.55;;
29824;SDS011;16713;52.916;12.834;2024-02-15T12:21:14;6.78;;;5.28;;
29824;SDS011;16713;52.916;12.834;2024-02-15T12:23:43;12.38;;;5.93;;
29824;SDS011;16713;52.916;12.834;2024-02-15T12:26:11;8.60;;;5.57;;
29824;SDS011;16713;52.916;12.834;2024-02-15T12:28:41;7.70;;;5.50;;
29824;SDS011;16713;52.916;12.834;2024-02-15T12:31:13;7.13;;;6.00;;
29824;SDS011;16713;52.916;12.834;2024-02-15T12:33:40;8.60;;;5.18;;
29824;SDS011;16713;52.916;12.834;2024-02-15T12:36:07;15.70;;;7.30;;
29824;SDS011;16713;52.916;12.834;2024-02-15T12:38:35;20.73;;;11.15;;
29824;SDS011;16713;52.916;12.834;2024-02-15T12:41:05;20.45;;;12.27;;
29824;SDS011;16713;52.916;12.834;2024-02-15T12:43:45;15.88;;;10.45;;
29824;SDS011;16713;52.916;12.834;2024-02-15T12:46:12;15.40;;;9.57;;
29824;SDS011;16713;52.916;12.834;2024-02-15T12:48:38;16.75;;;9.65;;
29824;SDS011;16713;52.916;12.834;2024-02-15T12:51:12;12.90;;;7.05;;
29824;SDS011;16713;52.916;12.834;2024-02-15T12:53:40;10.15;;;6.40;;
29824;SDS011;16713;52.916;12.834;2024-02-15T12:56:08;12.43;;;6.70;;
29824;SDS011;16713;52.916;12.834;2024-02-15T12:58:37;10.77;;;5.47;;
29824;SDS011;16713;52.916;12.834;2024-02-15T13:01:05;7.97;;;6.18;;
29824;SDS011;16713;52.916;12.834;2024-02-15T13:03:32;10.07;;;5.60;;
29824;SDS011;16713;52.916;12.834;2024-02-15T13:05:58;10.02;;;6.25;;
29824;SDS011;16713;52.916;12.834;2024-02-15T13:08:25;8.85;;;6.05;;
29824;SDS011;16713;52.916;12.834;2024-02-15T13:10:51;9.40;;;6.05;;
29824;SDS011;16713;52.916;12.834;2024-02-15T13:13:18;7.93;;;5.30;;
29824;SDS011;16713;52.916;12.834;2024-02-15T13:15:47;9.20;;;5.57;;
29824;SDS011;16713;52.916;12.834;2024-02-15T13:18:18;11.38;;;6.15;;
29824;SDS011;16713;52.916;12.834;2024-02-15T13:20:45;9.30;;;5.55;;
29824;SDS011;16713;52.916;12.834;2024-02-15T13:23:11;12.43;;;7.07;;
29824;SDS011;16713;52.916;12.834;2024-02-15T13:25:42;8.20;;;5.38;;
29824;SDS011;16713;52.916;12.834;2024-02-15T13:28:12;10.68;;;5.95;;
29824;SDS011;16713;52.916;12.834;2024-02-15T13:30:40;9.60;;;6.25;;
29824;SDS011;16713;52.916;12.834;2024-02-15T13:33:07;8.43;;;6.25;;
29824;SDS011;16713;52.916;12.834;2024-02-15T13:35:34;10.82;;;5.72;;
29824;SDS011;16713;52.916;12.834;2024-02-15T13:38:02;8.50;;;5.88;;
29824;SDS011;16713;52.916;12.834;2024-02-15T13:40:29;8.70;;;6.15;;
29824;SDS011;16713;52.916;12.834;2024-02-15T13:42:58;10.70;;;5.32;;
29824;SDS011;16713;52.916;12.834;2024-02-15T13:45:29;8.57;;;5.60;;
29824;SDS011;16713;52.916;12.834;2024-02-15T13:48:08;7.28;;;5.60;;
29824;SDS011;16713;52.916;12.834;2024-02-15T13:50:36;8.43;;;5.63;;
29824;SDS011;16713;52.916;12.834;2024-02-15T13:53:04;8.77;;;5.32;;
29824;SDS011;16713;52.916;12.834;2024-02-15T13:55:31;7.18;;;4.95;;
29824;SDS011;16713;52.916;12.834;2024-02-15T13:57:57;8.68;;;5.60;;
29824;SDS011;16713;52.916;12.834;2024-02-15T14:00:25;10.88;;;5.75;;
29824;SDS011;16713;52.916;12.834;2024-02-15T14:03:03;7.13;;;5.55;;
29824;SDS011;16713;52.916;12.834;2024-02-15T14:05:33;11.57;;;5.43;;
29824;SDS011;16713;52.916;12.834;2024-02-15T14:08:00;6.88;;;4.90;;
29824;SDS011;16713;52.916;12.834;2024-02-15T14:10:28;7.75;;;6.00;;
29824;SDS011;16713;52.916;12.834;2024-02-15T14:12:56;8.75;;;5.95;;
29824;SDS011;16713;52.916;12.834;2024-02-15T14:15:26;7.80;;;5.50;;
29824;SDS011;16713;52.916;12.834;2024-02-15T14:17:53;8.00;;;5.30;;
29824;SDS011;16713;52.916;12.834;2024-02-15T14:20:19;6.68;;;4.88;;
29824;SDS011;16713;52.916;12.834;2024-02-15T14:22:48;8.30;;;5.75;;
29824;SDS011;16713;52.916;12.834;2024-02-15T14:25:22;10.30;;;5.95;;
29824;SDS011;16713;52.916;12.834;2024-02-15T14:27:49;9.57;;;5.20;;
29824;SDS011;16713;52.916;12.834;2024-02-15T14:30:16;6.63;;;5.00;;
29824;SDS011;16713;52.916;12.834;2024-02-15T14:33:01;10.32;;;6.07;;
29824;SDS011;16713;52.916;12.834;2024-02-15T14:35:32;7.78;;;5.60;;
29824;SDS011;16713;52.916;12.834;2024-02-15T14:38:03;8.13;;;6.13;;
29824;SDS011;16713;52.916;12.834;2024-02-15T14:40:41;8.13;;;6.07;;
29824;SDS011;16713;52.916;12.834;2024-02-15T14:45:45;11.60;;;5.85;;
29824;SDS011;16713;52.916;12.834;2024-02-15T14:48:12;9.25;;;5.72;;